Time;durP1;ratioP1;P1;durP2;ratioP2;P2;SDS_P1;SDS_P2;PMS_P1;PMS_P2;Temp;Humidity;BMP_temperature;BMP_pressure;BME280_temperature;BME280_humidity;BME280_pressure;Samples;Min_cycle;Max_cycle;Signal;HPM_P1;HPM_P2
2021/04/26 00:00:25;;;;;;;7.13;2.97;;;2.20;99.90;;;0.28;79.32;102021.31;3521416;39;102425;-41
2021/04/26 00:02:54;;;;;;;5.93;3.00;;;2.10;99.90;;;0.31;79.71;102022.91;3538126;39;104101;-41
2021/04/26 00:05:22;;;;;;;6.72;2.88;;;2.10;99.90;;;0.27;79.28;102016.06;3522453;39;103390;-41
2021/04/26 00:07:49;;;;;;;5.32;3.03;;;2.10;99.90;;;0.23;78.89;102014.56;3516533;39;102141;-41
2021/04/26 00:10:17;;;;;;;5.90;2.90;;;2.00;99.90;;;0.17;79.72;102015.91;3532394;39;102416;-40
2021/04/26 00:12:46;;;;;;;6.90;3.08;;;2.00;99.90;;;0.11;78.99;102005.59;3516289;39;104040;-41
2021/04/26 00:15:22;;;;;;;6.50;2.78;;;1.90;99.90;;;0.09;79.94;102010.22;3532528;39;103481;-41
2021/04/26 00:17:51;;;;;;;4.95;3.38;;;1.90;99.90;;;-0.05;79.25;101985.28;3541686;39;103052;-41
2021/04/26 00:20:26;;;;;;;6.70;3.13;;;1.90;99.90;;;0.03;79.41;102003.50;3532749;39;102407;-41
2021/04/26 00:22:58;;;;;;;7.32;2.97;;;1.80;99.90;;;-0.01;79.30;102000.19;3524836;39;103085;-41
2021/04/26 00:25:26;;;;;;;7.07;3.08;;;1.80;99.90;;;-0.03;80.10;102009.31;3532669;39;102458;-41
2021/04/26 00:27:54;;;;;;;10.00;3.35;;;1.80;99.90;;;-0.07;79.85;102002.47;3533221;39;103283;-41
2021/04/26 00:30:24;;;;;;;5.82;3.17;;;1.70;99.90;;;-0.09;79.81;101997.22;3524355;39;102392;-41
2021/04/26 00:32:53;;;;;;;7.47;3.17;;;1.70;99.90;;;-0.19;80.20;101990.81;3532573;39;104221;-41
2021/04/26 00:35:23;;;;;;;5.10;2.90;;;1.60;99.90;;;-0.19;81.16;101993.47;3523879;39;104169;-41
2021/04/26 00:37:53;;;;;;;7.40;3.10;;;1.60;99.90;;;-0.16;81.60;101987.88;3532386;39;103427;-41
2021/04/26 00:40:23;;;;;;;6.53;3.53;;;1.60;99.90;;;-0.21;81.13;101990.94;3540864;39;103924;-40
2021/04/26 00:42:52;;;;;;;8.88;3.40;;;1.60;99.90;;;-0.24;81.21;101988.47;3524477;39;103081;-40
2021/04/26 00:45:25;;;;;;;6.22;3.08;;;1.60;99.90;;;-0.27;80.90;101986.00;3541781;39;102342;-41
2021/04/26 00:47:54;;;;;;;5.80;3.20;;;1.60;99.90;;;-0.31;81.24;101984.50;3524835;39;102365;-41
2021/04/26 00:50:28;;;;;;;6.45;3.00;;;1.50;99.90;;;-0.30;81.14;101981.72;3524500;39;102249;-41
2021/04/26 00:52:57;;;;;;;7.72;3.20;;;1.50;99.90;;;-0.31;79.97;101979.16;3524518;39;103271;-41
2021/04/26 00:55:29;;;;;;;7.30;3.40;;;1.50;99.90;;;-0.37;80.24;101976.91;3531912;39;102286;-41
2021/04/26 00:57:56;;;;;;;7.78;3.15;;;1.50;99.90;;;-0.40;80.86;101969.09;3532348;39;103139;-41
2021/04/26 01:00:28;;;;;;;7.20;2.92;;;1.40;99.90;;;-0.40;80.87;101966.41;3540669;39;103238;-41
2021/04/26 01:02:57;;;;;;;4.28;2.85;;;1.40;99.90;;;-0.41;80.34;101970.06;3532607;39;103091;-41
2021/04/26 01:05:30;;;;;;;5.90;3.17;;;1.40;99.90;;;-0.47;81.27;101963.31;3532124;39;102414;-41
2021/04/26 01:08:01;;;;;;;8.68;3.33;;;1.40;99.90;;;-0.51;81.44;101967.19;3541158;39;103203;-41
2021/04/26 01:10:51;;;;;;;8.90;3.73;;;1.30;99.90;;;-0.55;81.72;101958.50;3526641;39;102344;-41
2021/04/26 01:13:33;;;;;;;6.57;3.38;;;1.30;99.90;;;-0.58;81.30;101950.69;3540297;39;102562;-40
2021/04/26 01:16:24;;;;;;;6.57;3.22;;;1.30;99.90;;;-0.59;81.28;101955.22;3531935;39;102477;-40
2021/04/26 01:19:06;;;;;;;7.25;3.30;;;1.30;99.90;;;-0.66;81.42;101943.25;3522151;39;103162;-41
2021/04/26 01:21:54;;;;;;;7.45;3.60;;;1.20;99.90;;;-0.61;81.76;101953.59;3530748;39;102340;-41
2021/04/26 01:27:27;;;;;;;6.60;3.00;;;1.20;99.90;;;-0.65;82.87;101953.00;3523863;39;102553;-39
2021/04/26 01:30:08;;;;;;;8.05;3.75;;;1.20;99.90;;;-0.70;82.49;101955.13;3512391;40;102247;-40
2021/04/26 01:33:10;;;;;;;8.20;3.40;;;1.20;99.90;;;-0.71;82.41;101949.88;3504774;40;102713;-40
2021/04/26 01:35:45;;;;;;;6.22;3.20;;;1.10;99.90;;;-0.73;82.12;101950.84;3503718;40;103151;-40
2021/04/26 01:38:36;;;;;;;6.82;3.05;;;1.10;99.90;;;-0.75;83.11;101952.78;3494145;40;103605;-40
2021/04/26 01:41:06;;;;;;;5.45;3.30;;;1.10;99.90;;;-0.74;82.46;101950.94;3501932;40;102383;-40
2021/04/26 01:43:37;;;;;;;6.82;3.22;;;1.10;99.90;;;-0.77;82.70;101952.06;3518952;40;103237;-40
2021/04/26 01:46:11;;;;;;;6.15;3.20;;;1.10;99.90;;;-0.81;83.08;101953.22;3502458;40;104044;-40
2021/04/26 01:48:48;;;;;;;5.10;2.80;;;1.00;99.90;;;-0.82;82.36;101959.53;3502447;40;103482;-40
2021/04/26 01:51:18;;;;;;;5.03;2.92;;;1.00;99.90;;;-0.84;82.23;101950.75;3501820;40;102290;-40
2021/04/26 01:53:49;;;;;;;6.13;2.88;;;1.00;99.90;;;-0.85;83.14;101949.03;3509868;40;103618;-40
2021/04/26 01:56:18;;;;;;;7.50;3.38;;;1.00;99.90;;;-0.90;83.16;101945.84;3509925;40;104284;-39
2021/04/26 01:58:51;;;;;;;6.68;3.30;;;1.00;99.90;;;-0.91;82.86;101944.13;3510788;40;102552;-40
2021/04/26 02:01:25;;;;;;;7.20;3.30;;;0.90;99.90;;;-0.95;82.94;101943.47;3510012;40;102601;-40
2021/04/26 02:04:05;;;;;;;5.50;2.92;;;0.90;99.90;;;-0.99;82.82;101939.31;3519090;40;102423;-40
2021/04/26 02:06:44;;;;;;;6.18;2.95;;;0.90;99.90;;;-1.01;82.34;101941.25;3495669;40;102382;-40
2021/04/26 02:09:23;;;;;;;5.53;3.05;;;0.80;99.90;;;-1.02;82.47;101943.09;3495851;40;102319;-40
2021/04/26 02:11:58;;;;;;;7.13;3.30;;;0.90;99.90;;;-1.02;82.21;101944.88;3503391;40;103270;-40
2021/04/26 02:14:35;;;;;;;5.38;3.17;;;0.80;99.90;;;-1.03;82.32;101938.69;3502670;40;102471;-40
2021/04/26 02:17:05;;;;;;;8.23;3.35;;;0.80;99.90;;;-1.02;82.72;101942.22;3501979;40;103302;-40
2021/04/26 02:19:35;;;;;;;8.52;3.42;;;0.90;99.90;;;-1.04;82.38;101939.66;3501897;40;102615;-40
2021/04/26 02:22:05;;;;;;;5.50;3.42;;;0.80;99.90;;;-1.09;82.33;101933.75;3510171;40;102827;-40
2021/04/26 02:24:48;;;;;;;6.63;3.30;;;0.80;99.90;;;-1.14;82.27;101929.69;3503381;40;104348;-40
2021/04/26 02:27:15;;;;;;;8.63;3.28;;;0.70;99.90;;;-1.16;82.37;101921.75;3493442;40;104168;-40
2021/04/26 02:29:43;;;;;;;;;;;0.70;99.90;;;-1.17;82.17;101925.41;3486308;40;102391;-40
2021/04/26 02:32:24;;;;;;;5.43;2.85;;;0.70;99.90;;;-1.19;82.79;101919.31;3510331;40;102300;-40
2021/04/26 02:35:16;;;;;;;9.00;3.80;;;0.70;99.90;;;-1.18;82.89;101918.34;3511189;40;102299;-40
2021/04/26 02:37:50;;;;;;;5.68;3.30;;;0.70;99.90;;;-1.19;83.10;101908.59;3478598;40;102310;-40
2021/04/26 02:40:20;;;;;;;10.32;3.97;;;0.70;99.90;;;-1.19;83.81;101906.78;3501644;40;102466;-40
2021/04/26 02:42:56;;;;;;;7.47;3.92;;;0.70;99.90;;;-1.17;83.98;101902.16;3510153;40;102446;-40
2021/04/26 02:45:31;;;;;;;7.35;3.47;;;0.70;99.90;;;-1.17;83.45;101901.28;3493827;40;102576;-40
2021/04/26 02:48:01;;;;;;;7.00;3.45;;;0.70;99.90;;;-1.14;83.79;101900.25;3493808;40;103156;-40
2021/04/26 02:50:35;;;;;;;7.28;4.00;;;0.70;99.90;;;-1.13;84.89;101897.44;3509929;40;102442;-40
2021/04/26 02:53:12;;;;;;;7.53;3.58;;;0.70;99.90;;;-1.14;84.02;101894.88;3509841;40;102375;-40
2021/04/26 02:55:42;;;;;;;12.27;4.07;;;0.70;99.90;;;-1.18;84.25;101896.91;3494541;40;102376;-40
2021/04/26 02:58:12;;;;;;;10.13;4.60;;;0.70;99.90;;;-1.20;84.27;101896.16;3509878;40;102767;-40
2021/04/26 03:00:42;;;;;;;9.23;4.25;;;0.70;99.90;;;-1.18;84.66;101902.25;3509924;40;102420;-40
2021/04/26 03:03:21;;;;;;;11.02;4.93;;;0.70;99.90;;;-1.17;84.35;101901.28;3518430;40;103135;-40
2021/04/26 03:05:51;;;;;;;7.97;4.32;;;0.70;99.90;;;-1.16;84.28;101905.69;3501830;40;103568;-40
2021/04/26 03:08:20;;;;;;;10.48;4.63;;;0.70;99.90;;;-1.16;84.16;101897.66;3509670;40;103180;-40
2021/04/26 03:10:50;;;;;;;10.25;4.95;;;0.70;99.90;;;-1.17;84.62;101895.94;3501316;40;102462;-40
2021/04/26 03:13:19;;;;;;;6.55;4.13;;;0.70;99.90;;;-1.14;84.75;101884.16;3518121;40;102181;-40
2021/04/26 03:15:48;;;;;;;10.90;5.15;;;0.70;99.90;;;-1.17;84.77;101879.88;3509962;40;102409;-39
2021/04/26 03:18:16;;;;;;;9.52;4.60;;;0.70;99.90;;;-1.16;84.76;101882.44;3477679;40;104236;-40
2021/04/26 03:20:47;;;;;;;10.60;4.72;;;0.70;99.90;;;-1.19;83.98;101871.09;3501541;40;102292;-39
2021/04/26 03:23:22;;;;;;;9.38;4.40;;;0.70;99.90;;;-1.21;84.92;101873.88;3509699;40;104114;-39
2021/04/26 03:25:55;;;;;;;9.48;4.88;;;0.70;99.90;;;-1.20;83.98;101869.38;3501517;40;103296;-40
2021/04/26 03:28:26;;;;;;;12.70;5.60;;;0.70;99.90;;;-1.15;84.60;101864.53;3510260;40;102194;-40
2021/04/26 03:30:58;;;;;;;10.60;5.13;;;0.70;99.90;;;-1.11;84.96;101863.34;3509793;40;103379;-39
2021/04/26 03:33:37;;;;;;;10.63;5.13;;;0.70;99.90;;;-1.08;84.56;101863.13;3509780;40;103130;-40
2021/04/26 03:36:07;;;;;;;10.07;5.15;;;0.70;99.90;;;-1.08;84.72;101860.44;3501367;40;102463;-40
2021/04/26 03:38:38;;;;;;;11.20;4.85;;;0.70;99.90;;;-1.11;85.38;101852.63;3493349;40;102362;-40
2021/04/26 03:41:07;;;;;;;7.50;4.68;;;0.70;99.90;;;-1.13;84.40;101857.25;3501460;40;102786;-40
2021/04/26 03:43:34;;;;;;;8.73;5.40;;;0.80;99.90;;;-1.16;84.63;101858.34;3509643;40;104056;-39
2021/04/26 03:46:09;;;;;;;9.70;4.85;;;0.70;99.90;;;-1.17;84.85;101855.75;3487427;40;102294;-40
2021/04/26 03:48:48;;;;;;;11.15;5.13;;;0.70;99.90;;;-1.20;84.25;101858.66;3495575;40;102370;-40
2021/04/26 03:51:20;;;;;;;12.18;4.80;;;0.70;99.90;;;-1.17;84.40;101850.41;3510157;40;103295;-39
2021/04/26 03:53:57;;;;;;;11.05;5.00;;;0.70;99.90;;;-1.17;84.60;101853.97;3495123;40;103900;-39
2021/04/26 03:56:32;;;;;;;10.00;5.30;;;0.70;99.90;;;-1.21;84.08;101851.59;3487936;40;102370;-39
2021/04/26 03:59:00;;;;;;;11.60;5.10;;;0.60;99.90;;;-1.21;85.05;101854.28;3485646;40;102488;-40
2021/04/26 04:01:30;;;;;;;9.63;5.30;;;0.60;99.90;;;-1.26;84.19;101841.22;3501793;40;102282;-40
2021/04/26 04:03:59;;;;;;;8.75;5.00;;;0.60;99.90;;;-1.27;85.19;101852.88;3509914;40;104337;-40
2021/04/26 04:06:36;;;;;;;10.13;5.20;;;0.60;99.90;;;-1.31;84.54;101846.03;3495062;40;102388;-40
2021/04/26 04:09:14;;;;;;;10.73;4.55;;;0.60;99.90;;;-1.35;85.11;101845.41;3509095;40;103129;-40
2021/04/26 04:11:51;;;;;;;8.38;5.22;;;0.50;99.90;;;-1.38;85.43;101845.63;3495157;40;102422;-40
2021/04/26 04:14:31;;;;;;;12.15;5.40;;;0.50;99.90;;;-1.39;85.05;101838.53;3517804;40;102372;-40
2021/04/26 04:17:04;;;;;;;10.98;5.45;;;0.50;99.90;;;-1.39;84.94;101843.06;3501815;40;102386;-40
2021/04/26 04:19:33;;;;;;;10.07;5.60;;;0.50;99.90;;;-1.38;85.52;101842.09;3509313;40;102555;-40
2021/04/26 04:22:03;;;;;;;10.45;5.28;;;0.50;99.90;;;-1.38;84.43;101844.78;3501915;40;102454;-40
2021/04/26 04:24:31;;;;;;;8.55;4.57;;;0.50;99.90;;;-1.31;85.05;101846.03;3501035;40;102162;-40
2021/04/26 04:26:58;;;;;;;10.07;5.00;;;0.50;99.90;;;-1.35;84.23;101842.72;3501148;40;102332;-40
2021/04/26 04:29:26;;;;;;;8.82;4.90;;;0.50;99.90;;;-1.36;84.91;101845.53;3493139;40;103132;-40
2021/04/26 04:32:02;;;;;;;12.68;5.22;;;0.50;99.90;;;-1.36;83.98;101867.78;3502041;40;102454;-40
2021/04/26 04:34:39;;;;;;;11.30;4.97;;;0.50;99.90;;;-1.40;84.63;101862.78;3502725;40;103379;-40
2021/04/26 04:37:17;;;;;;;9.43;5.68;;;0.40;99.90;;;-1.39;85.43;101865.31;3510005;40;103395;-40
2021/04/26 04:39:54;;;;;;;13.63;5.57;;;0.40;99.90;;;-1.39;85.23;101859.97;3502634;40;102393;-40
2021/04/26 04:42:31;;;;;;;9.00;5.32;;;0.50;99.90;;;-1.36;85.45;101864.25;3487910;40;102424;-40
2021/04/26 04:44:59;;;;;;;10.32;5.35;;;0.50;99.90;;;-1.34;86.04;101863.16;3485615;40;102807;-40
2021/04/26 04:47:27;;;;;;;12.57;5.05;;;0.50;99.90;;;-1.30;85.92;101874.53;3501233;40;103608;-40
2021/04/26 04:49:55;;;;;;;9.25;5.10;;;0.50;99.90;;;-1.28;85.58;101861.03;3493072;40;103117;-40
2021/04/26 04:52:24;;;;;;;9.75;5.25;;;0.50;99.90;;;-1.28;85.27;101861.88;3509324;40;102317;-40
2021/04/26 04:54:51;;;;;;;9.07;5.75;;;0.50;99.90;;;-1.24;84.96;101858.03;3501698;40;103100;-40
2021/04/26 04:57:23;;;;;;;11.00;5.30;;;0.60;99.90;;;-1.20;84.78;101858.66;3495696;40;102284;-40
2021/04/26 04:59:50;;;;;;;11.37;5.30;;;0.60;99.90;;;-1.15;85.29;101856.50;3510272;40;103093;-40
2021/04/26 05:02:27;;;;;;;11.63;5.50;;;0.70;99.90;;;-1.06;85.24;101863.03;3510868;40;102585;-40
2021/04/26 05:05:05;;;;;;;11.55;5.40;;;0.70;99.90;;;-0.97;85.66;101853.47;3488824;40;103416;-39
2021/04/26 05:07:42;;;;;;;11.52;5.65;;;0.80;99.90;;;-0.94;85.40;101848.72;3519418;40;102377;-40
2021/04/26 05:10:19;;;;;;;12.70;5.45;;;0.80;99.90;;;-0.85;85.35;101849.06;3510983;40;104095;-40
2021/04/26 05:12:56;;;;;;;13.18;6.03;;;0.90;99.90;;;-0.75;85.74;101850.94;3510813;40;102429;-40
2021/04/26 05:15:32;;;;;;;10.18;5.55;;;1.00;99.90;;;-0.64;85.42;101844.78;3503148;40;102309;-40
2021/04/26 05:17:59;;;;;;;14.57;5.90;;;1.10;99.90;;;-0.52;85.11;101848.38;3502020;40;102950;-40
2021/04/26 05:20:27;;;;;;;13.43;6.07;;;1.20;99.90;;;-0.37;85.19;101841.03;3494447;40;103075;-40
2021/04/26 05:22:57;;;;;;;11.80;6.03;;;1.30;99.90;;;-0.22;84.02;101838.13;3502615;40;102504;-40
2021/04/26 05:25:25;;;;;;;13.13;6.30;;;1.40;99.90;;;-0.06;84.20;101838.69;3518839;40;102457;-40
2021/04/26 05:27:53;;;;;;;11.73;5.93;;;1.60;99.90;;;0.02;83.44;101835.41;3519568;40;103314;-40
2021/04/26 05:30:21;;;;;;;9.82;5.80;;;1.60;99.90;;;0.13;82.81;101843.47;3502195;40;102349;-40
2021/04/26 05:32:48;;;;;;;12.55;5.70;;;1.70;99.90;;;0.27;82.26;101844.25;3519410;40;102136;-40
2021/04/26 05:35:35;;;;;;;13.48;5.65;;;1.80;99.90;;;0.42;81.52;101837.66;3498111;40;102336;-40
2021/04/26 05:38:17;;;;;;;9.40;5.53;;;2.00;99.90;;;0.55;81.21;101844.75;3486464;40;102287;-40
2021/04/26 05:40:48;;;;;;;14.00;6.28;;;2.10;99.90;;;0.73;80.70;101845.13;3509924;40;103316;-40
2021/04/26 05:43:18;;;;;;;9.23;5.72;;;2.30;99.90;;;0.94;80.27;101850.59;3502751;40;102350;-41
2021/04/26 05:45:49;;;;;;;13.88;5.88;;;2.40;99.90;;;1.21;79.23;101849.34;3502763;40;103145;-40
2021/04/26 05:48:19;;;;;;;9.88;5.95;;;2.70;99.90;;;1.50;77.59;101851.44;3510463;40;102665;-40
2021/04/26 05:50:46;;;;;;;12.13;6.30;;;2.90;99.90;;;1.84;75.35;101845.09;3493899;40;103186;-40
2021/04/26 05:53:13;;;;;;;12.35;5.72;;;3.20;99.90;;;2.08;74.53;101852.88;3501888;40;102436;-40
2021/04/26 05:55:40;;;;;;;11.88;5.57;;;3.50;99.90;;;2.35;73.41;101856.88;3501775;40;103313;-40
2021/04/26 05:58:07;;;;;;;9.65;5.78;;;3.70;99.90;;;2.56;72.40;101842.53;3509958;40;102770;-40
2021/04/26 06:00:34;;;;;;;9.13;4.97;;;4.00;99.90;;;2.86;71.65;101849.75;3502084;40;104400;-40
2021/04/26 06:03:01;;;;;;;12.85;5.55;;;4.10;99.90;;;3.07;69.90;101847.97;3501716;40;102284;-40
2021/04/26 06:05:28;;;;;;;12.63;5.97;;;4.40;99.90;;;3.35;69.81;101849.03;3509682;40;104261;-40
2021/04/26 06:07:56;;;;;;;7.90;5.10;;;4.60;99.90;;;3.55;69.25;101846.34;3510113;40;102824;-40
2021/04/26 06:10:26;;;;;;;8.35;4.78;;;4.80;99.90;;;3.79;69.26;101854.03;3509847;40;104326;-40
2021/04/26 06:12:54;;;;;;;10.00;5.20;;;5.10;99.90;;;3.99;66.85;101848.63;3510043;40;102335;-40
2021/04/26 06:15:24;;;;;;;11.98;5.50;;;5.20;99.90;;;4.15;66.95;101846.19;3509448;40;102225;-40
2021/04/26 06:17:50;;;;;;;10.63;5.15;;;5.50;99.90;;;4.33;65.36;101850.84;3509660;40;103188;-40
2021/04/26 06:20:18;;;;;;;10.57;5.22;;;5.60;99.90;;;4.52;65.39;101838.28;3510062;40;104050;-40
2021/04/26 06:22:45;;;;;;;12.93;5.30;;;5.80;99.90;;;4.68;63.32;101837.66;3486308;40;102415;-40
2021/04/26 06:25:13;;;;;;;10.90;5.00;;;6.00;99.90;;;4.87;63.06;101839.41;3509535;40;102310;-40
2021/04/26 06:27:40;;;;;;;10.55;5.00;;;6.10;99.90;;;5.05;62.73;101834.03;3501906;40;102482;-40
2021/04/26 06:30:08;;;;;;;7.90;5.05;;;6.30;99.90;;;5.21;61.16;101835.25;3510545;40;104065;-40
2021/04/26 06:32:35;;;;;;;8.32;4.47;;;6.50;99.90;;;5.36;59.81;101833.69;3510066;40;102360;-40
2021/04/26 06:35:05;;;;;;;8.30;4.63;;;6.60;99.90;;;5.53;60.97;101837.41;3509645;40;104007;-40
2021/04/26 06:37:34;;;;;;;10.30;4.18;;;6.80;99.90;;;5.74;59.48;101828.13;3501903;40;102312;-40
2021/04/26 06:40:01;;;;;;;6.78;3.78;;;7.00;99.90;;;5.91;58.39;101834.53;3509883;40;102396;-40
2021/04/26 06:42:29;;;;;;;6.80;3.83;;;7.20;99.90;;;6.11;58.81;101839.81;3494001;40;103051;-40
2021/04/26 06:44:56;;;;;;;12.88;4.70;;;7.30;99.90;;;6.23;56.32;101829.56;3501566;40;103130;-40
2021/04/26 06:47:23;;;;;;;8.35;4.65;;;7.50;99.90;;;6.42;55.71;101832.06;3493994;40;102443;-40
2021/04/26 06:49:53;;;;;;;7.03;3.83;;;7.60;99.90;;;6.58;57.73;101835.88;3502055;40;104719;-40
2021/04/26 06:52:20;;;;;;;8.18;3.90;;;7.80;99.90;;;6.66;53.97;101835.06;3510123;40;102444;-40
2021/04/26 06:54:47;;;;;;;6.50;3.55;;;7.90;99.90;;;6.87;56.76;101840.94;3501191;40;105661;-40
2021/04/26 06:57:14;;;;;;;8.75;3.85;;;8.10;99.90;;;6.98;54.52;101836.22;3501926;40;104571;-40
2021/04/26 06:59:42;;;;;;;9.27;4.15;;;8.20;99.90;;;7.18;56.06;101836.81;3509886;40;102101;-40
2021/04/26 07:02:12;;;;;;;9.43;4.03;;;8.30;99.90;;;7.30;55.18;101835.47;3509695;40;104396;-40
2021/04/26 07:04:39;;;;;;;7.07;3.80;;;8.50;99.90;;;7.43;53.43;101834.16;3509680;40;103989;-40
2021/04/26 07:07:07;;;;;;;9.57;3.90;;;8.60;99.90;;;7.51;51.78;101830.59;3501501;40;102684;-40
2021/04/26 07:09:34;;;;;;;9.93;3.53;;;8.70;99.90;;;7.75;54.04;101833.31;3509206;40;102317;-40
2021/04/26 07:12:01;;;;;;;5.75;3.42;;;8.90;99.90;;;7.97;53.41;101825.53;3518976;40;102490;-41
2021/04/26 07:14:28;;;;;;;12.02;2.88;;;9.10;99.90;;;8.14;50.87;101817.38;3517938;40;103093;-40
2021/04/26 07:16:55;;;;;;;6.65;2.90;;;9.30;99.90;;;8.27;47.63;101814.13;3519032;40;102743;-40
2021/04/26 07:19:22;;;;;;;4.90;2.77;;;9.40;97.20;;;8.49;49.90;101816.13;3494510;40;104063;-40
2021/04/26 07:21:50;;;;;;;5.00;2.30;;;9.50;99.10;;;8.71;47.69;101810.94;3518752;40;102300;-41
2021/04/26 07:24:17;;;;;;;3.95;2.10;;;9.80;96.60;;;8.88;45.60;101811.72;3509405;40;104094;-40
2021/04/26 07:26:45;;;;;;;4.78;2.13;;;9.90;94.00;;;9.07;42.05;101807.72;3636099;22;103240;-41
2021/04/26 07:29:12;;;;;;;3.47;1.83;;;10.10;85.90;;;9.19;41.47;101810.03;3524058;39;102309;-41
2021/04/26 07:31:39;;;;;;;3.38;1.52;;;10.20;81.60;;;9.34;42.06;101796.50;3503471;39;102868;-41
2021/04/26 07:34:07;;;;;;;4.83;1.87;;;10.40;84.00;;;9.45;40.69;101807.00;3519429;39;102341;-42
2021/04/26 07:36:34;;;;;;;3.03;1.63;;;10.50;76.70;;;9.50;40.81;101807.28;3503662;39;102420;-41
2021/04/26 07:39:03;;;;;;;4.50;1.50;;;10.60;76.90;;;9.59;39.74;101808.09;3519716;39;103231;-42
2021/04/26 07:41:30;;;;;;;3.38;1.60;;;10.70;71.90;;;9.73;39.20;101805.56;3528240;39;102400;-41
2021/04/26 07:43:57;;;;;;;3.10;1.63;;;10.70;70.70;;;9.86;40.60;101805.81;3503354;39;104131;-41
2021/04/26 07:46:24;;;;;;;3.72;1.40;;;10.90;76.80;;;10.01;40.23;101791.38;3519764;39;102352;-42
2021/04/26 07:48:51;;;;;;;2.75;1.40;;;11.00;74.80;;;10.08;39.60;101792.34;3511789;39;102346;-44
2021/04/26 07:51:19;;;;;;;2.65;1.40;;;11.10;71.70;;;10.11;37.10;101788.38;3520284;39;102480;-42
2021/04/26 07:53:47;;;;;;;3.43;1.30;;;11.20;63.60;;;10.21;37.03;101781.63;3519261;39;104993;-41
2021/04/26 07:56:14;;;;;;;3.15;1.20;;;11.30;64.10;;;10.17;35.81;101788.47;3504072;39;102513;-42
2021/04/26 07:58:42;;;;;;;3.08;1.38;;;11.30;61.10;;;10.14;36.53;101788.00;3511577;39;104826;-42
2021/04/26 08:01:09;;;;;;;3.35;1.20;;;11.30;61.40;;;10.16;36.08;101791.38;3503908;39;102494;-41
2021/04/26 08:03:36;;;;;;;2.97;1.37;;;11.30;60.40;;;10.17;35.61;101783.03;3511287;39;102469;-41
2021/04/26 08:06:05;;;;;;;3.72;1.50;;;11.40;59.20;;;10.40;39.20;101792.16;3511498;39;102404;-41
2021/04/26 08:08:33;;;;;;;3.17;1.60;;;11.50;66.70;;;10.35;34.82;101787.28;3511954;39;105772;-41
2021/04/26 08:11:00;;;;;;;;;;;11.50;56.90;;;10.20;31.34;101790.84;3519411;39;102537;-41
2021/04/26 08:13:28;;;;;;;3.13;1.20;;;11.50;51.30;;;10.16;32.54;101788.66;3519272;39;102172;-41
2021/04/26 08:15:57;;;;;;;;;;;11.40;52.80;;;10.36;36.50;101783.53;3520679;39;102279;-42
2021/04/26 08:18:25;;;;;;;2.88;1.20;;;11.50;58.40;;;10.54;37.39;101785.03;3512146;39;103090;-41
2021/04/26 08:20:53;;;;;;;5.65;2.00;;;11.60;60.70;;;10.66;37.65;101783.53;3519473;39;102596;-41
2021/04/26 08:23:20;;;;;;;3.42;1.30;;;11.60;61.90;;;10.83;36.94;101789.63;3519061;39;102212;-41
2021/04/26 08:25:47;;;;;;;3.15;1.38;;;11.80;60.70;;;10.84;34.46;101782.28;3528962;39;102593;-42
2021/04/26 08:28:16;;;;;;;5.32;1.65;;;11.90;56.40;;;10.95;37.19;101790.00;3512866;39;103101;-41
2021/04/26 08:30:49;;;;;;;3.33;1.60;;;12.00;60.20;;;10.96;36.06;101786.22;3521052;39;103297;-41
2021/04/26 08:33:17;;;;;;;3.05;1.50;;;12.10;59.60;;;10.99;33.96;101796.75;3520340;39;102315;-41
2021/04/26 08:35:44;;;;;;;2.43;1.50;;;12.20;56.20;;;10.73;33.27;101792.66;3512990;39;102528;-42
2021/04/26 08:38:11;;;;;;;7.07;2.10;;;12.00;54.00;;;10.90;38.23;101789.72;3520777;39;102496;-41
2021/04/26 08:40:39;;;;;;;2.93;1.40;;;12.00;60.90;;;10.94;33.39;101780.09;3520949;39;102292;-41
2021/04/26 08:43:08;;;;;;;3.05;1.30;;;12.10;53.70;;;11.02;34.57;101770.97;3520662;39;103192;-41
2021/04/26 08:45:35;;;;;;;2.55;1.35;;;12.10;56.00;;;11.05;33.62;101768.69;3520266;39;102859;-41
2021/04/26 08:48:04;;;;;;;3.70;1.45;;;12.10;54.10;;;10.78;33.10;101773.81;3512691;39;102645;-41
2021/04/26 08:50:32;;;;;;;2.70;1.50;;;12.10;52.80;;;10.64;31.65;101759.16;3529978;39;103419;-41
2021/04/26 08:52:59;;;;;;;2.40;1.30;;;11.90;50.40;;;10.88;35.95;101759.88;3529492;39;103066;-42
2021/04/26 08:55:26;;;;;;;2.00;1.27;;;12.00;56.90;;;11.08;35.65;101772.91;3512308;39;102414;-42
2021/04/26 08:57:54;;;;;;;2.23;1.37;;;12.10;56.50;;;11.25;35.79;101769.94;3530416;39;103200;-41
2021/04/26 09:00:23;;;;;;;3.35;1.50;;;12.30;57.10;;;11.31;33.02;101766.44;3520617;39;103827;-41
2021/04/26 09:03:04;;;;;;;2.92;1.20;;;12.40;53.60;;;11.41;33.74;101763.38;3512299;39;102421;-41
2021/04/26 09:05:36;;;;;;;3.33;1.40;;;12.50;57.10;;;11.13;31.86;101775.91;3520415;39;102242;-41
2021/04/26 09:08:10;;;;;;;2.83;1.40;;;12.50;50.80;;;11.16;32.18;101774.69;3520468;39;102907;-41
2021/04/26 09:10:50;;;;;;;5.65;1.45;;;12.40;53.30;;;11.37;32.26;101769.22;3529298;39;102380;-41
2021/04/26 09:13:28;;;;;;;5.68;1.45;;;12.50;51.90;;;11.57;35.61;101771.31;3529196;39;104051;-41
2021/04/26 09:16:07;;;;;;;2.97;1.40;;;12.60;56.30;;;11.56;33.56;101768.78;3529951;39;104233;-41
2021/04/26 09:18:54;;;;;;;3.20;1.40;;;12.70;53.40;;;11.48;34.23;101767.03;3529903;39;102306;-41
2021/04/26 09:21:35;;;;;;;5.97;1.63;;;12.70;54.00;;;11.69;35.20;101757.13;3529466;39;103181;-42
2021/04/26 09:24:28;;;;;;;6.13;1.50;;;12.70;54.90;;;11.83;31.92;101750.72;3521624;39;102435;-41
2021/04/26 09:27:09;;;;;;;3.28;1.50;;;12.80;50.70;;;11.71;31.35;101752.31;3529605;39;102302;-41
2021/04/26 09:29:39;;;;;;;3.47;1.50;;;12.90;49.70;;;11.77;33.16;101756.97;3520663;39;102315;-41
2021/04/26 09:32:11;;;;;;;3.38;1.58;;;12.90;52.50;;;11.78;32.62;101740.34;3529354;39;102318;-42
2021/04/26 09:34:44;;;;;;;2.88;1.48;;;12.80;51.50;;;11.98;33.28;101736.94;3529147;39;103112;-42
2021/04/26 09:37:17;;;;;;;2.42;1.48;;;13.00;52.50;;;11.89;34.24;101730.75;3520337;39;102883;-41
2021/04/26 09:39:55;;;;;;;4.88;1.45;;;13.10;54.50;;;11.97;32.52;101721.56;3528800;39;102621;-41
2021/04/26 09:42:49;;;;;;;4.05;1.45;;;13.10;51.60;;;11.66;32.19;101718.19;3529727;39;103201;-41
2021/04/26 09:45:37;;;;;;;4.35;1.30;;;13.00;50.20;;;11.91;36.12;101723.22;3529241;39;103986;-41
2021/04/26 09:48:19;;;;;;;3.47;1.57;;;13.00;55.50;;;12.17;35.30;101721.72;3529758;39;103023;-41
2021/04/26 09:50:56;;;;;;;3.42;1.52;;;13.20;55.40;;;12.36;34.05;101717.44;3529507;39;104512;-41
2021/04/26 09:53:28;;;;;;;4.40;1.75;;;13.30;54.30;;;12.27;32.13;101715.88;3528385;39;103150;-41
2021/04/26 09:56:08;;;;;;;5.43;1.50;;;13.40;51.50;;;11.84;31.16;101716.84;3529834;39;102146;-41
2021/04/26 09:58:38;;;;;;;3.97;2.20;;;13.20;48.50;;;12.01;32.19;101708.38;3520128;39;103380;-41
2021/04/26 10:01:06;;;;;;;3.70;1.75;;;13.30;50.90;;;12.21;31.92;101712.09;3512378;39;103079;-41
2021/04/26 10:03:34;;;;;;;3.10;1.63;;;13.30;50.30;;;12.31;34.47;101708.97;3520973;39;102548;-41
2021/04/26 10:06:01;;;;;;;5.75;1.75;;;13.40;53.50;;;12.28;32.20;101705.81;3512629;39;104004;-41
2021/04/26 10:08:29;;;;;;;3.95;1.83;;;13.40;50.30;;;12.10;32.71;101698.97;3520739;39;102440;-41
2021/04/26 10:10:57;;;;;;;3.92;1.77;;;13.40;50.90;;;12.10;29.95;101688.03;3519861;39;103744;-41
2021/04/26 10:13:27;;;;;;;3.63;1.83;;;13.30;48.00;;;12.34;31.42;101694.03;3511897;39;102244;-41
2021/04/26 10:16:06;;;;;;;3.20;1.85;;;13.40;49.60;;;12.36;33.47;101687.34;3520849;39;103191;-41
2021/04/26 10:18:40;;;;;;;3.10;1.60;;;13.50;51.50;;;12.23;31.10;101682.63;3529507;39;102337;-41
2021/04/26 10:21:18;;;;;;;5.10;1.98;;;13.50;49.40;;;12.16;32.56;101678.19;3529686;39;104408;-41
2021/04/26 10:23:49;;;;;;;3.90;1.80;;;13.40;49.90;;;12.29;33.08;101674.66;3528141;39;105062;-41
2021/04/26 10:26:37;;;;;;;4.13;1.80;;;13.50;51.50;;;12.63;33.51;101667.41;3528910;39;105256;-41
2021/04/26 10:29:19;;;;;;;3.35;1.60;;;13.60;53.10;;;12.60;29.10;101673.31;3529680;39;103429;-42
2021/04/26 10:31:59;;;;;;;4.82;1.80;;;13.80;46.70;;;12.33;30.02;101662.25;3520382;39;102336;-41